createdAt,value
2023-02-26T00:00:34.817Z,4.01
2023-02-26T00:06:01.202Z,2.66
2023-02-26T00:11:06.950Z,3.33
2023-02-26T00:16:22.118Z,4.32
2023-02-26T00:21:25.949Z,2.44
2023-02-26T00:26:32.547Z,3.19
2023-02-26T00:31:35.343Z,4.61
2023-02-26T00:36:48.562Z,2.81
2023-02-26T00:41:51.304Z,3.63
2023-02-26T00:46:58.685Z,3.17
2023-02-26T00:52:06.314Z,2.99
2023-02-26T00:57:09.186Z,4.20
2023-02-26T01:02:11.708Z,3.37
2023-02-26T01:07:15.151Z,2.80
2023-02-26T01:12:17.914Z,4.21
2023-02-26T01:17:29.606Z,2.79
2023-02-26T01:22:35.888Z,2.83
2023-02-26T01:27:38.998Z,4.03
2023-02-26T01:32:44.813Z,2.36
2023-02-26T01:37:58.478Z,1.35
2023-02-26T01:43:26.712Z,3.08
2023-02-26T01:48:38.509Z,1.93
2023-02-26T01:53:41.125Z,3.29
2023-02-26T01:58:44.377Z,2.48
2023-02-26T02:03:46.922Z,2.44
2023-02-26T02:08:49.519Z,3.32
2023-02-26T02:13:56.021Z,1.74
2023-02-26T02:19:04.338Z,0.79
2023-02-26T02:24:07.796Z,2.19
2023-02-26T02:29:26.068Z,2.73
2023-02-26T02:34:31.418Z,1.25
2023-02-26T02:39:39.904Z,1.02
2023-02-26T02:44:49.309Z,2.98
2023-02-26T02:50:02.350Z,1.88
2023-02-26T02:55:13.093Z,2.73
2023-02-26T03:00:19.749Z,1.77
2023-02-26T03:05:22.324Z,3.72
2023-02-26T03:10:25.110Z,3.13
2023-02-26T03:15:51.583Z,1.49
2023-02-26T03:21:03.101Z,1.73
2023-02-26T03:26:16.036Z,3.46
2023-02-26T03:31:20.590Z,2.30
2023-02-26T03:36:30.165Z,1.44
2023-02-26T03:41:40.815Z,3.23
2023-02-26T03:46:50.573Z,2.89
2023-02-26T03:51:54.424Z,2.34
2023-02-26T03:56:57.464Z,1.74
2023-02-26T04:02:00.231Z,0.97
2023-02-26T04:07:03.622Z,2.73
2023-02-26T04:12:06.230Z,2.18
2023-02-26T04:17:08.767Z,1.01
2023-02-26T04:22:11.428Z,0.69
2023-02-26T04:27:13.908Z,2.85
2023-02-26T04:32:16.428Z,3.57
2023-02-26T04:37:18.941Z,2.06
2023-02-26T04:42:21.577Z,3.39
2023-02-26T04:47:24.048Z,3.05
2023-02-26T04:52:26.693Z,1.83
2023-02-26T04:57:29.219Z,3.65
2023-02-26T05:02:31.846Z,3.18
2023-02-26T05:07:34.349Z,1.71
2023-02-26T05:12:36.876Z,2.57
2023-02-26T05:17:39.670Z,3.83
2023-02-26T05:22:42.869Z,2.17
2023-02-26T05:27:45.344Z,2.61
2023-02-26T05:32:48.022Z,4.20
2023-02-26T05:37:50.480Z,2.79
2023-02-26T05:42:53.013Z,1.70
2023-02-26T05:47:55.819Z,3.38
2023-02-26T05:52:58.650Z,2.54
2023-02-26T05:58:01.479Z,1.95
2023-02-26T06:03:04.180Z,2.86
2023-02-26T06:08:06.841Z,2.30
2023-02-26T06:13:09.429Z,3.10
2023-02-26T06:18:11.962Z,1.74
2023-02-26T06:23:14.994Z,1.61
2023-02-26T06:28:17.562Z,3.28
2023-02-26T06:33:20.606Z,2.07
2023-02-26T06:38:25.616Z,1.78
2023-02-26T06:43:28.140Z,3.08
2023-02-26T06:48:30.726Z,1.95
2023-02-26T06:53:33.281Z,3.19
2023-02-26T06:58:35.817Z,3.81
2023-02-26T07:03:38.389Z,2.22
2023-02-26T07:08:41.026Z,1.43
2023-02-26T07:13:43.674Z,3.05
2023-02-26T07:18:46.176Z,3.79
2023-02-26T07:23:48.949Z,2.37
2023-02-26T07:28:51.488Z,2.73
2023-02-26T07:33:54.020Z,3.92
2023-02-26T07:38:56.514Z,2.42
2023-02-26T07:43:59.092Z,1.53
2023-02-26T07:49:01.767Z,1.70
2023-02-26T07:54:04.312Z,3.73
2023-02-26T07:59:07.068Z,2.83
2023-02-26T08:04:09.850Z,2.29
2023-02-26T08:09:12.556Z,3.52
2023-02-26T08:14:15.239Z,3.79
2023-02-26T08:19:18.229Z,2.73
2023-02-26T08:24:21.392Z,2.64
2023-02-26T08:29:25.065Z,3.57
2023-02-26T08:34:27.558Z,2.62
2023-02-26T08:39:33.851Z,3.27
2023-02-26T08:44:36.634Z,4.85
2023-02-26T08:49:39.199Z,3.66
2023-02-26T08:54:41.681Z,3.80
2023-02-26T08:59:44.193Z,5.27
2023-02-26T09:04:47.335Z,4.31
2023-02-26T09:09:49.897Z,3.64
2023-02-26T09:14:52.366Z,3.20
2023-02-26T09:19:54.869Z,4.08
2023-02-26T09:24:57.902Z,3.45
2023-02-26T09:30:00.501Z,4.34
2023-02-26T09:35:04.358Z,3.98
2023-02-26T09:40:08.402Z,3.51
2023-02-26T09:45:30.679Z,5.14
2023-02-26T09:50:40.786Z,4.55
2023-02-26T09:55:47.496Z,3.87
2023-02-26T10:01:10.191Z,3.55
2023-02-26T10:06:34.866Z,3.33
2023-02-26T10:11:41.230Z,3.15
2023-02-26T10:16:49.399Z,2.98
2023-02-26T10:21:58.284Z,2.92
2023-02-26T10:27:06.647Z,2.79
2023-02-26T10:32:12.182Z,2.67
2023-02-26T10:37:17.726Z,2.91
2023-02-26T10:42:27.420Z,3.35
2023-02-26T10:47:44.700Z,3.61
2023-02-26T10:52:49.093Z,3.96
2023-02-26T10:58:05.107Z,4.03
2023-02-26T11:03:13.795Z,3.90
2023-02-26T11:08:23.753Z,3.60
2023-02-26T11:13:29.023Z,3.53
2023-02-26T11:18:39.385Z,3.62
2023-02-26T11:23:43.752Z,3.58
2023-02-26T11:28:49.670Z,3.35
2023-02-26T11:33:59.099Z,3.34
2023-02-26T11:39:05.950Z,3.42
2023-02-26T11:44:13.669Z,3.71
2023-02-26T11:49:18.344Z,3.82
2023-02-26T11:54:23.866Z,3.86
2023-02-26T11:59:26.402Z,3.73
2023-02-26T12:04:31.464Z,3.70
2023-02-26T12:09:34.073Z,3.94
2023-02-26T12:14:41.501Z,3.94
2023-02-26T12:19:44.032Z,3.80
2023-02-26T12:24:49.419Z,3.64
2023-02-26T12:29:54.796Z,3.68
2023-02-26T12:35:12.355Z,3.55
2023-02-26T12:40:30.828Z,3.50
2023-02-26T12:45:47.194Z,3.41
2023-02-26T12:50:54.562Z,3.34
2023-02-26T12:55:59.919Z,3.32
2023-02-26T13:01:10.742Z,3.30
2023-02-26T13:06:17.256Z,3.36
2023-02-26T13:11:40.299Z,3.16
2023-02-26T13:16:54.540Z,3.06
2023-02-26T13:22:02.059Z,3.06
2023-02-26T13:27:07.618Z,3.05
2023-02-26T13:32:19.658Z,2.96
2023-02-26T13:37:27.880Z,2.82
2023-02-26T13:42:41.835Z,2.67
2023-02-26T13:47:47.335Z,2.54
2023-02-26T13:52:54.546Z,2.47
2023-02-26T13:57:57.025Z,2.46
2023-02-26T14:03:05.346Z,2.46
2023-02-26T14:08:19.645Z,2.39
2023-02-26T14:13:35.111Z,2.32
2023-02-26T14:18:39.529Z,2.24
2023-02-26T14:23:43.091Z,2.20
2023-02-26T14:29:06.695Z,2.16
2023-02-26T14:34:16.678Z,2.11
2023-02-26T14:39:24.963Z,2.07
2023-02-26T14:44:31.410Z,2.01
2023-02-26T14:49:38.098Z,1.90
2023-02-26T14:54:46.432Z,1.84
2023-02-26T14:59:52.855Z,1.81
2023-02-26T15:04:58.220Z,1.75
2023-02-26T15:10:02.780Z,1.70
2023-02-26T15:15:10.186Z,1.66
2023-02-26T15:20:32.983Z,1.64
2023-02-26T15:25:39.618Z,1.61
2023-02-26T15:30:47.136Z,1.59
2023-02-26T15:35:51.895Z,1.59
2023-02-26T15:41:00.541Z,1.55
2023-02-26T15:46:03.757Z,1.52
2023-02-26T15:51:10.068Z,1.50
2023-02-26T15:56:21.843Z,2.75
2023-02-26T16:01:26.273Z,3.94
2023-02-26T16:06:35.672Z,2.90
2023-02-26T16:11:40.988Z,2.27
2023-02-26T16:16:48.458Z,1.95
2023-02-26T16:21:53.454Z,1.74
2023-02-26T16:27:01.767Z,2.49
2023-02-26T16:32:09.411Z,4.81
2023-02-26T16:37:11.922Z,3.77
2023-02-26T16:42:19.694Z,2.73
2023-02-26T16:47:30.990Z,2.86
2023-02-26T16:52:33.648Z,5.23
2023-02-26T16:57:42.100Z,5.00
2023-02-26T17:02:47.387Z,3.38
2023-02-26T17:07:58.139Z,4.77
2023-02-26T17:13:06.987Z,6.02
2023-02-26T17:18:09.590Z,4.25
2023-02-26T17:23:17.566Z,5.19
2023-02-26T17:28:25.201Z,6.56
2023-02-26T17:33:32.275Z,5.04
2023-02-26T17:38:37.046Z,3.86
2023-02-26T17:43:39.549Z,5.61
2023-02-26T17:48:42.044Z,6.46
2023-02-26T17:53:46.493Z,4.62
2023-02-26T17:58:49.412Z,5.43
2023-02-26T18:03:52.137Z,6.24
2023-02-26T18:08:54.727Z,4.22
2023-02-26T18:13:57.263Z,4.07
2023-02-26T18:19:00.814Z,6.02
2023-02-26T18:24:03.574Z,6.07
2023-02-26T18:29:06.148Z,4.21
2023-02-26T18:34:09.159Z,5.37
2023-02-26T18:39:15.113Z,6.15
2023-02-26T18:44:17.690Z,4.49
2023-02-26T18:49:21.118Z,5.67
2023-02-26T18:54:23.603Z,6.36
2023-02-26T18:59:26.346Z,4.29
2023-02-26T19:04:29.253Z,4.28
2023-02-26T19:09:31.740Z,5.86
2023-02-26T19:14:34.551Z,6.69
2023-02-26T19:19:37.264Z,5.09
2023-02-26T19:24:41.419Z,4.89
2023-02-26T19:29:43.891Z,6.12
2023-02-26T19:34:46.357Z,5.99
2023-02-26T19:39:48.938Z,4.15
2023-02-26T19:44:53.771Z,5.38
2023-02-26T19:49:56.246Z,6.75
2023-02-26T19:54:58.727Z,6.99
2023-02-26T20:00:02.977Z,4.97
2023-02-26T20:05:07.426Z,4.66
2023-02-26T20:10:11.266Z,6.14
2023-02-26T20:15:13.962Z,6.90
2023-02-26T20:20:16.779Z,7.06
2023-02-26T20:25:19.777Z,4.88
2023-02-26T20:30:22.826Z,4.94
2023-02-26T20:35:25.321Z,6.34
2023-02-26T20:40:27.817Z,6.64
2023-02-26T20:45:30.322Z,4.71
2023-02-26T20:50:33.359Z,5.75
2023-02-26T20:55:36.383Z,6.80
2023-02-26T21:00:38.983Z,6.25
2023-02-26T21:05:42.834Z,4.78
2023-02-26T21:10:45.668Z,6.11
2023-02-26T21:15:49.921Z,6.79
2023-02-26T21:20:52.529Z,5.03
2023-02-26T21:25:55.201Z,5.46
2023-02-26T21:30:57.789Z,6.57
2023-02-26T21:36:00.357Z,7.01
2023-02-26T21:41:02.840Z,5.18
2023-02-26T21:46:05.684Z,4.28
2023-02-26T21:51:08.469Z,5.86
2023-02-26T21:56:11.003Z,6.79
2023-02-26T22:01:13.621Z,5.63
2023-02-26T22:06:17.271Z,4.46
2023-02-26T22:11:19.829Z,6.00
2023-02-26T22:16:22.529Z,6.76
2023-02-26T22:21:25.681Z,5.52
2023-02-26T22:26:28.437Z,4.53
2023-02-26T22:31:32.308Z,5.97
2023-02-26T22:36:36.168Z,6.29
2023-02-26T22:41:38.688Z,4.22
2023-02-26T22:46:41.404Z,4.78
2023-02-26T22:51:43.895Z,6.19
2023-02-26T22:56:46.416Z,6.88
2023-02-26T23:01:48.928Z,5.43
2023-02-26T23:06:51.450Z,4.63
2023-02-26T23:11:53.949Z,6.19
2023-02-26T23:16:56.463Z,6.60
2023-02-26T23:21:59.045Z,4.48
2023-02-26T23:27:01.630Z,3.89
2023-02-26T23:32:04.511Z,5.74
2023-02-26T23:43:59.353Z,5.35
2023-02-26T23:49:01.836Z,3.79
2023-02-26T23:54:04.704Z,5.12
2023-02-26T23:59:07.641Z,6.56
